Time;durP1;ratioP1;P1;durP2;ratioP2;P2;SDS_P1;SDS_P2;PMS_P1;PMS_P2;Temp;Humidity;BMP_temperature;BMP_pressure;BME280_temperature;BME280_humidity;BME280_pressure;Samples;Min_cycle;Max_cycle;Signal;HPM_P1;HPM_P2
2021/09/02 00:00:43;;;;;;;10.82;5.90;;;;;;;20.26;55.70;102736.94;4993161;28;124359;-65
2021/09/02 00:03:10;;;;;;;11.65;5.57;;;;;;;20.23;55.86;102738.00;4990798;28;122904;-65
2021/09/02 00:05:38;;;;;;;9.85;5.68;;;;;;;20.21;55.78;102739.88;4995097;28;108956;-65
2021/09/02 00:08:05;;;;;;;10.88;5.40;;;;;;;20.20;55.63;102735.47;4992573;28;108983;-65
2021/09/02 00:10:33;;;;;;;8.52;5.07;;;;;;;20.19;55.60;102741.78;4992523;28;124121;-65
2021/09/02 00:13:00;;;;;;;10.10;5.28;;;;;;;20.16;55.52;102736.59;4989464;28;124635;-65
2021/09/02 00:15:28;;;;;;;10.85;4.97;;;;;;;20.15;55.56;102740.22;4992974;28;109540;-65
2021/09/02 00:17:55;;;;;;;9.57;4.70;;;;;;;20.13;55.56;102731.38;4995679;28;109069;-65
2021/09/02 00:20:22;;;;;;;9.25;5.22;;;;;;;20.11;55.79;102739.53;4990836;28;124150;-65
2021/09/02 00:22:49;;;;;;;10.40;5.38;;;;;;;20.10;55.91;102736.91;4993626;28;124736;-65
2021/09/02 00:25:16;;;;;;;10.57;5.50;;;;;;;20.09;55.90;102740.56;4993618;28;109258;-65
2021/09/02 00:27:44;;;;;;;10.40;5.22;;;;;;;20.09;55.80;102740.56;4995135;28;109048;-65
2021/09/02 00:30:12;;;;;;;11.32;5.32;;;;;;;20.08;55.92;102739.72;4990668;28;125259;-66
2021/09/02 00:32:39;;;;;;;10.68;5.30;;;;;;;20.08;55.71;102733.44;4990111;28;124131;-65
2021/09/02 00:35:07;;;;;;;11.82;5.50;;;;;;;20.08;55.81;102730.75;4994454;28;110337;-65
2021/09/02 00:37:35;;;;;;;9.10;4.82;;;;;;;20.08;55.94;102728.06;4993263;28;109979;-67
2021/09/02 00:40:03;;;;;;;8.75;4.95;;;;;;;20.06;56.09;102730.88;4989468;28;124082;-65
2021/09/02 00:42:30;;;;;;;8.77;5.10;;;;;;;20.07;56.03;102731.72;4993936;28;123753;-65
2021/09/02 00:44:57;;;;;;;10.27;5.07;;;;;;;20.06;55.65;102729.97;4992284;28;109341;-65
2021/09/02 00:47:25;;;;;;;12.18;5.18;;;;;;;20.06;55.72;102729.97;4992873;28;109575;-65
2021/09/02 00:49:55;;;;;;;13.00;5.03;;;;;;;20.05;55.69;102722.88;4990729;28;124057;-65
2021/09/02 00:52:28;;;;;;;11.35;5.18;;;;;;;20.04;55.66;102721.97;4987668;28;123907;-65
2021/09/02 00:55:03;;;;;;;10.10;5.20;;;;;;;20.05;55.47;102722.88;4998070;28;110108;-65
2021/09/02 00:57:33;;;;;;;9.55;4.90;;;;;;;20.02;55.23;102719.41;4985235;28;109031;-65
2021/09/02 01:00:13;;;;;;;8.95;4.68;;;;;;;20.01;55.15;102717.66;4987994;28;124216;-65
2021/09/02 01:02:41;;;;;;;10.15;4.60;;;;;;;20.00;55.23;102721.31;4990856;28;124247;-65
2021/09/02 01:05:10;;;;;;;10.65;4.95;;;;;;;19.99;54.96;102733.00;4991361;28;109640;-65
2021/09/02 01:07:38;;;;;;;9.60;4.47;;;;;;;19.97;55.09;102717.91;4990395;28;108941;-65
2021/09/02 01:10:07;;;;;;;8.82;4.80;;;;;;;19.97;55.21;102721.47;4990610;28;124101;-65
2021/09/02 01:12:37;;;;;;;7.82;4.30;;;;;;;19.96;55.32;102719.72;4990365;28;123978;-65
2021/09/02 01:15:06;;;;;;;6.90;4.60;;;;;;;19.95;55.24;102722.53;4991305;28;108825;-65
2021/09/02 01:17:34;;;;;;;9.75;5.07;;;;;;;19.93;55.33;102714.53;4991728;28;109468;-66
2021/09/02 01:20:04;;;;;;;8.35;4.60;;;;;;;19.92;55.12;102718.16;4989824;28;122859;-66
2021/09/02 01:22:32;;;;;;;8.85;4.65;;;;;;;19.91;55.29;102716.44;4991293;28;124515;-65
2021/09/02 01:25:01;;;;;;;7.80;5.30;;;;;;;19.89;55.31;102715.66;4994536;28;110185;-66
2021/09/02 01:27:29;;;;;;;9.07;5.25;;;;;;;19.88;55.35;102716.59;4989985;28;109949;-66
2021/09/02 01:29:57;;;;;;;8.27;4.80;;;;;;;19.87;55.39;102720.22;4991882;28;124487;-66
2021/09/02 01:32:27;;;;;;;11.13;5.45;;;;;;;19.86;55.28;102718.50;4993448;28;124038;-65
2021/09/02 01:34:56;;;;;;;10.23;5.15;;;;;;;19.85;55.40;102716.75;4992615;28;109291;-65
2021/09/02 01:37:25;;;;;;;7.05;4.68;;;;;;;19.84;55.35;102715.03;4992115;28;109439;-65
2021/09/02 01:39:52;;;;;;;9.48;5.00;;;;;;;19.83;55.37;102713.28;4991318;28;124776;-65
2021/09/02 01:42:20;;;;;;;9.88;5.18;;;;;;;19.80;55.18;102718.84;4989722;28;123836;-65
2021/09/02 01:44:48;;;;;;;9.63;4.85;;;;;;;19.77;55.45;102708.25;4991281;28;109226;-65
2021/09/02 01:47:26;;;;;;;10.50;5.15;;;;;;;19.74;55.43;102714.66;4992747;28;107967;-65
2021/09/02 01:49:54;;;;;;;9.50;4.65;;;;;;;19.71;55.07;102708.56;4989679;28;124033;-65
2021/09/02 01:52:21;;;;;;;8.73;4.68;;;;;;;19.70;55.18;102712.16;4989662;28;123820;-65
2021/09/02 01:54:49;;;;;;;10.43;4.93;;;;;;;19.67;55.16;102706.97;4994879;28;109376;-65
2021/09/02 01:57:16;;;;;;;10.18;5.05;;;;;;;19.65;55.20;102713.28;4992982;28;109103;-65
2021/09/02 01:59:43;;;;;;;8.57;4.55;;;;;;;19.64;55.09;102714.22;5034792;22;123843;-66
2021/09/02 02:02:10;;;;;;;9.13;5.22;;;;;;;19.61;54.92;102713.56;5014951;28;123900;-66
2021/09/02 02:04:38;;;;;;;9.65;5.25;;;;;;;19.57;54.92;102707.47;5015261;28;109525;-65
2021/09/02 02:07:05;;;;;;;11.30;5.00;;;;;;;19.52;54.74;102706.84;5022809;28;109042;-65
2021/09/02 02:09:32;;;;;;;9.15;4.85;;;;;;;19.50;54.84;102700.69;5019279;28;123838;-66
2021/09/02 02:11:59;;;;;;;10.27;5.07;;;;;;;19.49;54.80;102692.69;5019583;28;124535;-66
2021/09/02 02:14:26;;;;;;;11.35;5.35;;;;;;;19.46;55.07;102693.75;5017289;28;110441;-66
2021/09/02 02:16:53;;;;;;;8.48;5.00;;;;;;;19.44;55.21;102695.63;5018593;28;109831;-66
2021/09/02 02:19:20;;;;;;;8.70;5.38;;;;;;;19.40;55.00;102699.41;5016447;28;124034;-66
2021/09/02 02:21:49;;;;;;;8.82;4.60;;;;;;;19.37;54.96;102694.22;5026415;28;123899;-66
2021/09/02 02:24:16;;;;;;;10.57;5.13;;;;;;;19.35;55.05;102694.28;5023135;27;109123;-66
2021/09/02 02:26:43;;;;;;;9.40;5.32;;;;;;;19.32;55.05;102701.66;5025869;28;108847;-67
2021/09/02 02:29:10;;;;;;;7.93;5.00;;;;;;;19.28;55.17;102705.44;5019065;28;124392;-68
2021/09/02 02:31:37;;;;;;;11.55;5.40;;;;;;;19.24;55.06;102705.59;5021683;28;124635;-68
2021/09/02 02:34:05;;;;;;;12.20;5.30;;;;;;;19.23;55.34;102698.50;5022195;28;110325;-68
2021/09/02 02:36:32;;;;;;;9.15;5.13;;;;;;;19.23;55.27;102698.50;5024796;28;109014;-68
2021/09/02 02:38:59;;;;;;;9.02;4.93;;;;;;;19.21;55.58;102695.03;5021518;28;124635;-68
2021/09/02 02:41:26;;;;;;;8.60;5.05;;;;;;;19.19;55.29;102696.94;5021396;28;123233;-68
2021/09/02 02:43:53;;;;;;;8.57;4.72;;;;;;;19.20;55.39;102692.41;5019962;28;109460;-68
2021/09/02 02:46:20;;;;;;;13.68;5.45;;;;;;;19.18;55.43;102695.19;5023165;28;108010;-68
2021/09/02 02:48:47;;;;;;;10.38;5.13;;;;;;;19.17;55.48;102698.78;5023023;28;124182;-68
2021/09/02 02:51:14;;;;;;;9.30;4.78;;;;;;;19.17;55.71;102698.78;5020340;28;124637;-68
2021/09/02 02:53:42;;;;;;;10.32;5.30;;;;;;;19.15;55.94;102695.31;5020440;28;109448;-68
2021/09/02 02:56:09;;;;;;;9.07;5.30;;;;;;;19.12;55.64;102700.88;5023955;28;109438;-69
2021/09/02 02:58:36;;;;;;;10.43;5.45;;;;;;;19.11;55.70;102693.75;5015162;28;123885;-69
2021/09/02 03:01:03;;;;;;;9.45;5.32;;;;;;;19.10;55.85;102697.41;5022148;28;124576;-69
2021/09/02 03:03:30;;;;;;;13.63;5.68;;;;;;;19.11;55.75;102693.75;5021411;28;110589;-69
2021/09/02 03:05:58;;;;;;;10.50;5.80;;;;;;;19.11;55.57;102693.75;5023250;28;110071;-69
2021/09/02 03:08:25;;;;;;;8.80;5.45;;;;;;;19.11;55.70;102687.53;5018795;28;124312;-69
2021/09/02 03:10:52;;;;;;;11.18;5.70;;;;;;;19.09;55.74;102695.66;5018451;28;124677;-68
2021/09/02 03:13:19;;;;;;;10.68;5.80;;;;;;;19.08;55.85;102693.03;5020024;28;109950;-69
2021/09/02 03:15:46;;;;;;;9.70;5.53;;;;;;;19.04;56.08;102692.31;5023601;28;109315;-68
2021/09/02 03:18:13;;;;;;;11.85;5.78;;;;;;;19.02;56.11;102695.13;5021342;28;124086;-69
2021/09/02 03:20:40;;;;;;;11.05;5.85;;;;;;;19.02;56.03;102694.22;5024371;28;124550;-69
2021/09/02 03:23:07;;;;;;;10.18;5.57;;;;;;;19.04;56.22;102703.06;5019724;28;110154;-69
2021/09/02 03:25:34;;;;;;;10.07;5.72;;;;;;;19.02;56.26;102696.91;5022905;28;108167;-68
2021/09/02 03:28:02;;;;;;;9.98;5.80;;;;;;;19.02;56.28;102699.59;5018256;28;124005;-68
2021/09/02 03:30:29;;;;;;;8.88;5.28;;;;;;;19.01;56.32;102697.88;5019383;27;124189;-69
2021/09/02 03:32:56;;;;;;;9.88;5.80;;;;;;;19.00;56.13;102702.34;5020758;28;109279;-68
2021/09/02 03:35:24;;;;;;;9.00;5.15;;;;;;;18.99;56.19;102697.09;5023213;28;108785;-68
2021/09/02 03:37:51;;;;;;;9.35;5.38;;;;;;;18.98;56.48;102703.38;5023567;28;123868;-68
2021/09/02 03:40:18;;;;;;;9.27;5.25;;;;;;;18.97;56.56;102690.94;5021827;28;122670;-68
2021/09/02 03:42:45;;;;;;;8.63;4.63;;;;;;;18.98;56.52;102698.00;5021031;28;109211;-68
2021/09/02 03:45:12;;;;;;;9.70;5.40;;;;;;;18.98;56.64;102688.13;5022466;27;108933;-68
2021/09/02 03:47:48;;;;;;;9.68;5.45;;;;;;;19.00;56.54;102693.44;5024225;28;124091;-68
2021/09/02 03:50:17;;;;;;;9.30;4.90;;;;;;;19.00;56.45;102685.38;5024769;28;123614;-68
2021/09/02 03:52:45;;;;;;;9.63;5.20;;;;;;;19.00;56.47;102680.00;5016266;28;110199;-68
2021/09/02 03:55:13;;;;;;;11.63;5.40;;;;;;;18.99;56.40;102694.41;5020472;28;110210;-68
2021/09/02 03:57:40;;;;;;;11.38;5.65;;;;;;;18.99;56.30;102689.03;5018689;28;124147;-68
2021/09/02 04:00:10;;;;;;;10.98;6.00;;;;;;;18.96;56.27;102690.03;5016199;28;124857;-68
2021/09/02 04:02:38;;;;;;;13.07;6.20;;;;;;;18.96;56.14;102699.91;5018914;28;109212;-68
2021/09/02 04:05:08;;;;;;;10.88;6.20;;;;;;;18.96;56.34;102690.03;5020068;28;108901;-68
2021/09/02 04:07:35;;;;;;;10.00;5.85;;;;;;;18.95;56.30;102692.78;5021661;28;124286;-68
2021/09/02 04:10:04;;;;;;;8.48;5.05;;;;;;;18.94;56.11;102691.06;5015753;28;123756;-68
2021/09/02 04:12:32;;;;;;;11.48;5.82;;;;;;;18.94;56.25;102691.06;5021267;28;109219;-68
2021/09/02 04:14:59;;;;;;;11.25;5.35;;;;;;;18.93;56.35;102686.63;5014078;28;108895;-68
2021/09/02 04:17:27;;;;;;;8.82;5.30;;;;;;;18.93;56.44;102689.31;5022468;28;123929;-68
2021/09/02 04:19:54;;;;;;;9.07;5.55;;;;;;;18.93;56.31;102683.94;5022012;28;124575;-68
2021/09/02 04:22:21;;;;;;;7.65;4.82;;;;;;;18.92;56.43;102682.22;5018393;28;108203;-68
2021/09/02 04:24:48;;;;;;;11.55;5.57;;;;;;;18.92;56.29;102687.59;5022962;28;108967;-69
2021/09/02 04:27:17;;;;;;;11.25;5.45;;;;;;;18.93;56.21;102681.25;5022463;28;123984;-68
2021/09/02 04:29:44;;;;;;;11.05;5.35;;;;;;;18.92;56.21;102677.72;5018919;28;123916;-68
2021/09/02 04:32:11;;;;;;;9.77;5.03;;;;;;;18.93;56.32;102678.56;5020025;28;108009;-68
2021/09/02 04:34:39;;;;;;;9.82;5.40;;;;;;;18.92;56.25;102683.09;5020195;28;109271;-68
2021/09/02 04:37:06;;;;;;;10.82;5.13;;;;;;;18.94;56.37;102680.31;5019360;28;124383;-68
2021/09/02 04:39:33;;;;;;;9.10;5.50;;;;;;;18.92;56.33;102682.22;5020571;28;123916;-68
2021/09/02 04:42:01;;;;;;;9.02;5.60;;;;;;;18.91;56.40;102683.16;5017535;28;111012;-68
2021/09/02 04:44:28;;;;;;;10.25;5.43;;;;;;;18.90;56.40;102684.13;5019439;28;109781;-68
2021/09/02 04:46:55;;;;;;;10.60;5.75;;;;;;;18.86;56.34;102692.31;5020959;28;123969;-68
2021/09/02 04:49:22;;;;;;;9.00;5.53;;;;;;;18.85;56.28;102687.91;5016491;28;123074;-68
2021/09/02 04:51:49;;;;;;;10.88;5.65;;;;;;;18.83;56.24;102692.47;5019399;28;109201;-68
2021/09/02 04:54:16;;;;;;;12.45;6.47;;;;;;;18.83;56.59;102683.56;5022734;28;109325;-68
2021/09/02 04:56:43;;;;;;;13.57;6.13;;;;;;;18.82;56.47;102687.19;5020654;28;124393;-68
2021/09/02 04:59:10;;;;;;;11.23;6.40;;;;;;;18.81;56.51;102688.13;5017874;28;124307;-68
2021/09/02 05:01:38;;;;;;;14.15;5.70;;;;;;;18.81;56.39;102691.69;5021795;28;108228;-68
2021/09/02 05:04:05;;;;;;;12.45;6.05;;;;;;;18.79;56.50;102693.53;5021492;28;108819;-68
2021/09/02 05:06:32;;;;;;;12.57;5.78;;;;;;;18.74;56.50;102695.59;5023881;28;123993;-68
2021/09/02 05:08:59;;;;;;;9.73;5.55;;;;;;;18.72;56.43;102697.47;5018805;28;123939;-68
2021/09/02 05:11:26;;;;;;;10.70;5.70;;;;;;;18.67;56.41;102689.66;5017362;28;109821;-68
2021/09/02 05:13:53;;;;;;;9.00;5.50;;;;;;;18.63;56.41;102687.22;5021903;28;108590;-68
2021/09/02 05:16:21;;;;;;;13.35;5.80;;;;;;;18.58;56.40;102689.25;5015939;28;124926;-68
2021/09/02 05:18:48;;;;;;;9.25;5.65;;;;;;;18.57;56.70;102687.50;5020883;28;123955;-68
2021/09/02 05:21:15;;;;;;;12.57;5.45;;;;;;;18.54;56.43;102682.31;5019447;28;109214;-67
2021/09/02 05:23:42;;;;;;;11.90;5.50;;;;;;;18.52;56.45;102684.19;5015492;28;109349;-67
2021/09/02 05:26:09;;;;;;;10.80;5.88;;;;;;;18.49;56.56;102686.06;5018913;28;123956;-67
2021/09/02 05:28:36;;;;;;;13.70;5.70;;;;;;;18.46;56.41;102683.53;5001709;28;123764;-67
2021/09/02 05:31:04;;;;;;;10.63;5.70;;;;;;;18.44;56.39;102688.13;5019011;28;110893;-67
2021/09/02 05:33:31;;;;;;;13.85;5.85;;;;;;;18.41;56.62;102687.41;5019241;28;109679;-68
2021/09/02 05:35:58;;;;;;;11.48;6.28;;;;;;;18.39;56.58;102687.47;5018624;28;122844;-67
2021/09/02 05:38:25;;;;;;;12.75;6.30;;;;;;;18.36;56.79;102690.28;5021079;28;123873;-67
2021/09/02 05:40:53;;;;;;;12.77;6.07;;;;;;;18.36;56.50;102690.28;5023148;28;109123;-67
2021/09/02 05:43:21;;;;;;;11.30;6.38;;;;;;;18.35;56.73;102693.94;5019717;28;108803;-67
2021/09/02 05:45:48;;;;;;;13.35;6.65;;;;;;;18.34;56.63;102692.19;5015089;28;124616;-67
2021/09/02 05:48:15;;;;;;;11.45;6.28;;;;;;;18.32;56.96;102688.69;5024378;28;123874;-67
2021/09/02 05:50:43;;;;;;;13.77;6.68;;;;;;;18.29;56.85;102691.56;5021361;28;109349;-67
2021/09/02 05:53:10;;;;;;;12.73;6.22;;;;;;;18.24;56.86;102690.91;5019549;28;109268;-67
2021/09/02 05:55:38;;;;;;;14.13;7.18;;;;;;;18.21;57.00;102688.34;5019164;28;124526;-67
2021/09/02 05:58:05;;;;;;;12.48;6.55;;;;;;;18.18;57.23;102691.19;5018376;28;124398;-67
2021/09/02 06:00:32;;;;;;;14.55;6.22;;;;;;;18.16;57.17;102693.06;5018509;28;109213;-67
2021/09/02 06:03:00;;;;;;;12.82;6.93;;;;;;;18.13;57.17;102690.53;5021646;28;108314;-67
2021/09/02 06:05:27;;;;;;;14.80;6.63;;;;;;;18.11;57.38;102684.38;5022437;28;124402;-67
2021/09/02 06:07:54;;;;;;;15.23;7.38;;;;;;;18.10;57.46;102688.84;5019026;28;123937;-67
2021/09/02 06:10:21;;;;;;;14.35;7.03;;;;;;;18.08;57.75;102686.25;5017033;28;109464;-67
2021/09/02 06:12:48;;;;;;;14.45;8.10;;;;;;;18.10;57.95;102694.22;5017265;28;108827;-67
2021/09/02 06:15:16;;;;;;;15.18;7.40;;;;;;;18.12;58.00;102696.81;5017679;28;123961;-67
2021/09/02 06:17:44;;;;;;;13.50;7.10;;;;;;;18.13;57.92;102698.59;5024734;28;125165;-68
2021/09/02 06:20:11;;;;;;;11.77;7.03;;;;;;;18.15;58.10;102702.06;5017461;28;109686;-68
2021/09/02 06:22:39;;;;;;;18.00;7.95;;;;;;;18.17;58.31;102705.53;5021136;28;109958;-68
2021/09/02 06:25:08;;;;;;;16.00;7.70;;;;;;;18.20;58.35;102705.41;5020925;28;123979;-68
2021/09/02 06:27:36;;;;;;;17.02;7.63;;;;;;;18.22;58.53;102704.38;5021209;28;123913;-68
2021/09/02 06:30:04;;;;;;;15.68;7.95;;;;;;;18.25;58.57;102703.34;5016976;28;110480;-68
2021/09/02 06:32:31;;;;;;;13.15;6.93;;;;;;;18.29;58.72;102710.31;5028439;28;109254;-68
2021/09/02 06:34:59;;;;;;;15.15;7.22;;;;;;;18.33;58.75;102706.56;5019600;27;123459;-68
2021/09/02 06:37:26;;;;;;;14.43;7.82;;;;;;;18.38;58.77;102699.13;5020935;28;123935;-68
2021/09/02 06:39:54;;;;;;;15.88;8.20;;;;;;;18.43;59.07;102702.47;5020139;28;109639;-68
2021/09/02 06:42:21;;;;;;;15.25;7.38;;;;;;;18.49;58.92;102707.53;5019445;28;108877;-68
2021/09/02 06:44:48;;;;;;;15.23;7.43;;;;;;;18.57;59.00;102703.59;5018086;28;124344;-68
2021/09/02 06:47:15;;;;;;;15.68;7.82;;;;;;;18.64;59.03;102694.31;5021430;28;124005;-68
2021/09/02 06:49:42;;;;;;;13.93;7.05;;;;;;;18.72;59.13;102702.84;5013369;28;109103;-68
2021/09/02 06:52:09;;;;;;;18.27;6.97;;;;;;;18.79;59.33;102693.53;5022287;28;109091;-68
2021/09/02 06:54:36;;;;;;;14.65;7.07;;;;;;;18.88;59.14;102691.38;5013910;28;124791;-68
2021/09/02 06:57:05;;;;;;;13.00;6.72;;;;;;;18.96;59.21;102700.78;5012206;28;124187;-68
2021/09/02 06:59:32;;;;;;;12.75;6.72;;;;;;;19.04;59.22;102703.06;5022199;28;109483;-68
2021/09/02 07:01:59;;;;;;;16.08;7.38;;;;;;;19.13;59.03;102702.59;5028106;28;108959;-68
2021/09/02 07:04:27;;;;;;;12.15;6.43;;;;;;;19.24;59.16;102705.59;5025086;28;124961;-68
2021/09/02 07:06:54;;;;;;;11.57;7.03;;;;;;;19.39;59.03;102708.44;5013668;28;123494;-67
2021/09/02 07:09:21;;;;;;;13.00;7.00;;;;;;;19.51;58.87;102706.91;5021778;28;109942;-68
2021/09/02 07:11:48;;;;;;;13.35;6.55;;;;;;;19.63;58.88;102701.75;5015603;28;110212;-69
2021/09/02 07:14:16;;;;;;;15.10;6.32;;;;;;;19.77;58.68;102708.25;5029530;28;123988;-68
2021/09/02 07:16:43;;;;;;;11.40;6.38;;;;;;;19.86;58.50;102702.38;5016682;28;124164;-68
2021/09/02 07:19:10;;;;;;;14.55;6.43;;;;;;;19.95;58.47;102707.25;5012443;28;109276;-68
2021/09/02 07:21:37;;;;;;;13.02;6.60;;;;;;;20.05;58.24;102714.81;5013623;28;108477;-68
2021/09/02 07:24:04;;;;;;;11.65;6.35;;;;;;;20.14;58.35;102700.84;5015362;28;124805;-68
2021/09/02 07:26:32;;;;;;;12.90;6.25;;;;;;;20.22;58.31;102703.97;5013529;28;123020;-68
2021/09/02 07:28:59;;;;;;;12.90;6.65;;;;;;;20.31;58.02;102706.13;5013542;28;109249;-68
2021/09/02 07:31:26;;;;;;;14.43;6.30;;;;;;;20.38;58.08;102710.22;5013952;28;109521;-68
2021/09/02 07:33:53;;;;;;;13.85;6.38;;;;;;;20.48;58.08;102707.00;5013416;28;123915;-68
2021/09/02 07:36:20;;;;;;;15.18;6.53;;;;;;;20.56;58.07;102707.44;5014462;28;122605;-68
2021/09/02 07:39:08;;;;;;;14.20;6.75;;;;;;;20.65;57.99;102706.94;5015139;28;109472;-68
2021/09/02 07:41:35;;;;;;;15.60;7.50;;;;;;;20.72;57.83;102713.69;5017023;28;109045;-68
2021/09/02 07:44:02;;;;;;;12.35;6.32;;;;;;;20.80;57.50;102711.41;5013860;28;124958;-68
2021/09/02 07:46:30;;;;;;;15.63;6.75;;;;;;;20.88;57.53;102712.78;5017298;28;123724;-68
2021/09/02 07:48:57;;;;;;;15.18;6.43;;;;;;;20.96;57.35;102722.16;5023500;28;109516;-68
2021/09/02 07:51:24;;;;;;;12.57;6.75;;;;;;;21.06;57.28;102721.59;5027225;28;109031;-68
2021/09/02 07:53:51;;;;;;;12.38;6.38;;;;;;;21.17;56.99;102714.63;5021113;28;124110;-68
2021/09/02 07:56:19;;;;;;;10.43;5.63;;;;;;;21.31;56.96;102726.41;5018846;28;123797;-68
2021/09/02 07:58:46;;;;;;;11.25;5.95;;;;;;;21.41;56.60;102722.16;5040613;22;110159;-66
2021/09/02 08:01:14;;;;;;;11.45;5.38;;;;;;;21.48;55.99;102723.56;4999702;28;109581;-66
2021/09/02 08:03:43;;;;;;;11.23;5.90;;;;;;;21.51;55.82;102718.00;5007296;28;123054;-67
2021/09/02 08:06:10;;;;;;;9.75;5.45;;;;;;;21.57;55.55;102712.22;5009144;28;124196;-67
2021/09/02 08:08:37;;;;;;;12.88;5.70;;;;;;;21.62;55.34;102716.44;5010703;28;109496;-67
2021/09/02 08:11:04;;;;;;;12.27;5.32;;;;;;;21.64;54.98;102712.69;5012758;28;109110;-67
2021/09/02 08:13:32;;;;;;;11.23;6.00;;;;;;;21.65;55.30;102713.56;4992060;28;123912;-67
2021/09/02 08:15:59;;;;;;;9.63;5.28;;;;;;;21.66;54.54;102712.59;4989770;28;122842;-66
2021/09/02 08:18:26;;;;;;;10.70;5.18;;;;;;;21.68;54.72;102713.38;4987068;28;109004;-67
2021/09/02 08:20:53;;;;;;;11.48;4.53;;;;;;;21.75;54.93;102720.13;4981892;28;109695;-67
2021/09/02 08:23:21;;;;;;;9.15;4.75;;;;;;;21.88;54.79;102715.69;4977890;28;123925;-67
2021/09/02 08:25:48;;;;;;;13.80;4.55;;;;;;;22.03;54.57;102729.16;4976597;28;124035;-67
2021/09/02 08:28:15;;;;;;;10.70;5.47;;;;;;;22.15;54.39;102728.38;4986061;28;109270;-67
2021/09/02 08:30:42;;;;;;;10.20;4.80;;;;;;;22.26;54.32;102720.47;4994517;28;107720;-67
2021/09/02 08:33:10;;;;;;;11.32;4.72;;;;;;;22.37;54.05;102721.63;4992972;28;124412;-67
2021/09/02 08:35:37;;;;;;;9.68;4.38;;;;;;;22.47;53.69;102717.34;4994015;28;124336;-67
2021/09/02 08:38:07;;;;;;;9.13;4.50;;;;;;;22.59;53.33;102716.53;4995095;28;109118;-67
2021/09/02 08:40:38;;;;;;;10.18;4.10;;;;;;;22.69;53.39;102712.25;4995146;28;108911;-67
2021/09/02 08:43:06;;;;;;;9.02;4.43;;;;;;;22.81;53.07;102715.09;4992983;28;124168;-67
2021/09/02 08:45:33;;;;;;;7.75;4.47;;;;;;;22.90;52.92;102711.78;4993348;28;123927;-67
2021/09/02 08:48:02;;;;;;;10.65;4.63;;;;;;;22.94;52.29;102718.69;4979474;28;110022;-65
2021/09/02 08:50:35;;;;;;;11.73;4.80;;;;;;;22.97;52.11;102718.50;4994277;28;109680;-67
2021/09/02 08:53:03;;;;;;;8.88;4.40;;;;;;;23.02;51.69;102713.66;4995167;28;124079;-67
2021/09/02 08:55:32;;;;;;;9.00;4.25;;;;;;;23.06;51.53;102715.22;4993417;28;123128;-67
2021/09/02 08:57:59;;;;;;;10.63;4.65;;;;;;;23.05;51.16;102713.47;4994040;28;109630;-67
2021/09/02 09:00:27;;;;;;;10.00;4.50;;;;;;;22.99;51.19;102719.25;4994063;28;108764;-67
2021/09/02 09:03:03;;;;;;;10.13;4.75;;;;;;;22.99;51.15;102713.84;4993006;28;122846;-67
2021/09/02 09:05:33;;;;;;;10.23;4.40;;;;;;;23.04;50.99;102719.84;4993235;28;124624;-67
2021/09/02 09:08:07;;;;;;;9.02;4.47;;;;;;;23.13;51.21;102716.53;4992832;28;109146;-66
2021/09/02 09:10:34;;;;;;;10.60;4.72;;;;;;;23.23;51.14;102715.91;4993778;28;108223;-66
2021/09/02 09:13:03;;;;;;;12.27;5.30;;;;;;;23.32;50.77;102720.66;4990770;28;124429;-67
2021/09/02 09:15:36;;;;;;;9.93;4.95;;;;;;;23.39;50.47;102713.84;4993197;28;124358;-66
2021/09/02 09:18:18;;;;;;;9.23;4.35;;;;;;;23.51;51.05;102715.69;4980861;28;109853;-67
2021/09/02 09:21:12;;;;;;;8.15;4.72;;;;;;;23.69;50.51;102712.66;4981388;28;108986;-67
2021/09/02 09:24:02;;;;;;;9.80;4.97;;;;;;;23.81;49.84;102711.81;4993466;28;123864;-67
2021/09/02 09:26:31;;;;;;;10.50;5.05;;;;;;;23.87;49.73;102705.97;4990924;28;123963;-67
2021/09/02 09:29:01;;;;;;;9.52;5.05;;;;;;;23.90;49.33;102711.16;4996923;28;108269;-67
2021/09/02 09:31:34;;;;;;;9.35;4.70;;;;;;;23.92;49.13;102712.88;4997703;28;109404;-67
2021/09/02 09:34:06;;;;;;;8.57;4.88;;;;;;;23.98;49.18;102707.00;5005607;28;124394;-67
2021/09/02 09:36:36;;;;;;;13.05;5.00;;;;;;;24.07;49.35;102706.34;5002645;28;123906;-67
2021/09/02 09:39:08;;;;;;;8.30;4.30;;;;;;;24.21;49.08;102703.50;4997117;28;110234;-67
2021/09/02 09:41:44;;;;;;;7.22;4.22;;;;;;;24.34;49.04;102702.59;5005618;28;109655;-67
2021/09/02 09:44:25;;;;;;;7.82;4.30;;;;;;;24.38;48.41;102704.09;4994281;28;124863;-67
2021/09/02 09:47:13;;;;;;;7.20;4.05;;;;;;;24.35;48.29;102698.91;4988840;28;123928;-67
2021/09/02 09:49:53;;;;;;;9.18;4.68;;;;;;;24.31;48.17;102692.84;4995454;28;108683;-67
2021/09/02 09:52:23;;;;;;;9.40;3.78;;;;;;;24.34;48.61;102697.19;4994893;28;109112;-67
2021/09/02 09:54:51;;;;;;;11.05;5.07;;;;;;;24.42;47.83;102700.19;4991598;28;123095;-67
2021/09/02 09:57:19;;;;;;;8.40;4.20;;;;;;;24.47;47.83;102703.41;4988710;28;124153;-67
2021/09/02 09:59:46;;;;;;;10.75;4.65;;;;;;;24.50;47.69;102695.03;4995861;28;109770;-67
2021/09/02 10:02:13;;;;;;;7.63;4.10;;;;;;;24.58;47.61;102699.91;4997301;28;107833;-67
2021/09/02 10:04:43;;;;;;;8.93;4.50;;;;;;;24.58;47.31;102695.38;4992835;28;124778;-67
2021/09/02 10:07:13;;;;;;;8.23;4.35;;;;;;;24.57;47.37;102699.06;4995771;28;123565;-67
2021/09/02 10:09:40;;;;;;;8.55;4.78;;;;;;;24.56;46.85;102701.88;4996194;28;109618;-67
2021/09/02 10:12:08;;;;;;;9.40;4.82;;;;;;;24.51;47.12;102694.06;5006381;28;109260;-67
2021/09/02 10:14:35;;;;;;;11.00;4.63;;;;;;;24.46;47.09;102699.81;5001858;28;124460;-67
2021/09/02 10:17:03;;;;;;;9.85;4.57;;;;;;;24.44;47.01;102692.81;4999915;28;123787;-67
2021/09/02 10:19:34;;;;;;;9.35;4.10;;;;;;;24.41;46.93;102687.59;4989754;28;114849;-67
2021/09/02 10:22:03;;;;;;;9.93;4.25;;;;;;;24.37;46.71;102691.53;4976474;28;114097;-67
2021/09/02 10:24:41;;;;;;;8.45;4.28;;;;;;;24.32;47.10;102688.28;4973816;28;123926;-67
2021/09/02 10:27:21;;;;;;;10.25;4.13;;;;;;;24.31;46.92;102686.56;4978853;28;124335;-67
2021/09/02 10:29:50;;;;;;;8.65;4.20;;;;;;;24.29;46.85;102675.84;4999360;28;114050;-67
2021/09/02 10:32:23;;;;;;;8.15;4.30;;;;;;;24.26;46.79;102674.25;4994134;28;113925;-67
2021/09/02 10:34:52;;;;;;;9.57;4.38;;;;;;;24.23;46.50;102674.47;4991128;28;123885;-67
2021/09/02 10:37:43;;;;;;;8.88;4.22;;;;;;;24.16;47.07;102673.19;4988204;28;125252;-67
2021/09/02 10:40:17;;;;;;;12.73;4.85;;;;;;;24.22;47.26;102667.34;4982098;28;114751;-67
2021/09/02 10:42:49;;;;;;;7.88;4.32;;;;;;;24.26;46.83;102668.84;4987414;28;114293;-66
2021/09/02 10:45:25;;;;;;;11.90;4.28;;;;;;;24.26;46.79;102668.84;4989579;28;124121;-67
2021/09/02 10:47:54;;;;;;;8.98;4.53;;;;;;;24.27;46.91;102665.13;4989400;28;122827;-67
2021/09/02 10:50:29;;;;;;;8.98;4.43;;;;;;;24.27;46.98;102670.53;4994365;28;114201;-67
2021/09/02 10:53:09;;;;;;;6.40;3.88;;;;;;;24.28;46.92;102666.88;4989662;28;114536;-67
2021/09/02 10:55:40;;;;;;;8.05;4.53;;;;;;;24.33;47.08;102657.53;4992604;28;124896;-67
2021/09/02 10:58:09;;;;;;;7.95;4.00;;;;;;;24.37;46.78;102653.59;4989493;28;124346;-67
2021/09/02 11:00:42;;;;;;;7.50;4.28;;;;;;;24.48;46.26;102656.38;4997654;28;114188;-67
2021/09/02 11:03:21;;;;;;;8.45;4.03;;;;;;;24.58;46.30;102656.56;4997167;28;114051;-67
2021/09/02 11:05:55;;;;;;;6.45;3.63;;;;;;;24.66;46.32;102665.84;5002850;28;123701;-67
2021/09/02 11:08:44;;;;;;;10.20;4.38;;;;;;;24.74;46.13;102651.72;4999145;28;123074;-67
2021/09/02 11:11:21;;;;;;;7.60;4.35;;;;;;;24.81;45.69;102665.66;5006303;28;113452;-67
2021/09/02 11:13:51;;;;;;;10.35;4.35;;;;;;;24.81;46.02;102658.41;4992742;28;113689;-67
2021/09/02 11:16:23;;;;;;;9.20;4.25;;;;;;;24.82;45.69;102660.09;4999449;28;124026;-67
2021/09/02 11:18:56;;;;;;;9.10;4.68;;;;;;;24.83;45.68;102656.44;5001152;28;124517;-66